GIA343 WAAA-WADD
Flight info
| Callsign | GIA343 |
|---|---|
| Flight time | 0h 58m |
| Altitude | 38000 |
| Route | LIPOT W41 PEDET |
| Aircraft | A339/H-SADE1E2E3GHIJ3J5M1P2RWXY/LB2D1 |
Departure
| Time | 2026-04-25 04:01 |
|---|---|
| Airport | Sultan Hasanuddin International Airport (WAAA) |
Arrival
| Time | 2026-04-25 04:59 |
|---|---|
| Airport | Denpasar I Gusti Ngurah Rai International Airport (WADD) |
| Time | Latitude | Longitude | Altitude | Speed | Heading |
|---|---|---|---|---|---|
| 2026-04-25 03:36 | -5.06107 | 119.54554 | 57 ft | 0 kts | 310° |
| 2026-04-25 03:47 | -5.06108 | 119.54556 | 64 ft | 1 kts | 311° |
| 2026-04-25 03:47 | -5.06111 | 119.54561 | 62 ft | 1 kts | 321° |
| 2026-04-25 03:47 | -5.06115 | 119.54565 | 62 ft | 1 kts | 331° |
| 2026-04-25 03:48 | -5.06119 | 119.54568 | 62 ft | 0 kts | 339° |
| 2026-04-25 03:48 | -5.06124 | 119.54571 | 68 ft | 1 kts | 347° |
| 2026-04-25 03:48 | -5.06130 | 119.54573 | 71 ft | 1 kts | 357° |
| 2026-04-25 03:49 | -5.06135 | 119.54574 | 75 ft | 1 kts | 7° |
| 2026-04-25 03:49 | -5.06136 | 119.54574 | 65 ft | 0 kts | 9° |
| 2026-04-25 03:53 | -5.06129 | 119.54576 | 50 ft | 4 kts | 12° |
| 2026-04-25 03:53 | -5.06101 | 119.54610 | 52 ft | 7 kts | 50° |
| 2026-04-25 03:53 | -5.06059 | 119.54662 | 49 ft | 12 kts | 51° |
| 2026-04-25 03:54 | -5.05995 | 119.54728 | 49 ft | 15 kts | 39° |
| 2026-04-25 03:54 | -5.05902 | 119.54785 | 55 ft | 16 kts | 21° |
| 2026-04-25 03:54 | -5.05804 | 119.54839 | 54 ft | 13 kts | 37° |
| 2026-04-25 03:54 | -5.05759 | 119.54885 | 54 ft | 15 kts | 57° |
| 2026-04-25 03:55 | -5.05790 | 119.54958 | 52 ft | 10 kts | 136° |
| 2026-04-25 03:55 | -5.05827 | 119.54999 | 49 ft | 13 kts | 132° |
| 2026-04-25 03:55 | -5.05896 | 119.55079 | 51 ft | 17 kts | 130° |
| 2026-04-25 03:55 | -5.06004 | 119.55134 | 52 ft | 20 kts | 164° |
| 2026-04-25 03:56 | -5.06097 | 119.55134 | 50 ft | 13 kts | 180° |
| 2026-04-25 03:56 | -5.06187 | 119.55172 | 48 ft | 16 kts | 135° |
| 2026-04-25 03:56 | -5.06267 | 119.55262 | 50 ft | 19 kts | 131° |
| 2026-04-25 03:56 | -5.06343 | 119.55351 | 49 ft | 16 kts | 130° |
| 2026-04-25 03:57 | -5.06422 | 119.55444 | 52 ft | 20 kts | 130° |
| 2026-04-25 03:57 | -5.06518 | 119.55558 | 47 ft | 23 kts | 130° |
| 2026-04-25 03:57 | -5.06626 | 119.55685 | 46 ft | 19 kts | 130° |
| 2026-04-25 03:57 | -5.06634 | 119.55692 | 49 ft | 0 kts | 139° |
| 2026-04-25 03:58 | -5.06691 | 119.55745 | 47 ft | 21 kts | 128° |
| 2026-04-25 03:58 | -5.06706 | 119.55868 | 49 ft | 15 kts | 60° |
| 2026-04-25 03:58 | -5.06644 | 119.55935 | 53 ft | 10 kts | 72° |
| 2026-04-25 03:58 | -5.06670 | 119.55983 | 49 ft | 8 kts | 130° |
| 2026-04-25 03:59 | -5.06731 | 119.56054 | 51 ft | 22 kts | 130° |
| 2026-04-25 03:59 | -5.06811 | 119.56152 | 45 ft | 6 kts | 124° |
| 2026-04-25 03:59 | -5.06829 | 119.56205 | 46 ft | 10 kts | 102° |
| 2026-04-25 03:59 | -5.06863 | 119.56262 | 52 ft | 10 kts | 153° |
| 2026-04-25 04:00 | -5.06898 | 119.56235 | 49 ft | 4 kts | 255° |
| 2026-04-25 04:00 | -5.06883 | 119.56221 | 47 ft | 3 kts | 315° |
| 2026-04-25 04:00 | -5.06829 | 119.56166 | 48 ft | 41 kts | 314° |
| 2026-04-25 04:00 | -5.06377 | 119.55641 | 55 ft | 154 kts | 310° |
| 2026-04-25 04:01 | -5.05589 | 119.54727 | 908 ft | 180 kts | 310° |
| 2026-04-25 04:01 | -5.04702 | 119.53701 | 1650 ft | 208 kts | 308° |
| 2026-04-25 04:01 | -5.04066 | 119.52356 | 2569 ft | 223 kts | 282° |
| 2026-04-25 04:01 | -5.04126 | 119.50745 | 3102 ft | 246 kts | 254° |
| 2026-04-25 04:02 | -5.04991 | 119.49219 | 3633 ft | 261 kts | 225° |
| 2026-04-25 04:02 | -5.06454 | 119.48111 | 4391 ft | 263 kts | 210° |
| 2026-04-25 04:02 | -5.08040 | 119.47115 | 4954 ft | 276 kts | 212° |
| 2026-04-25 04:02 | -5.09586 | 119.45943 | 5709 ft | 282 kts | 219° |
| 2026-04-25 04:03 | -5.11034 | 119.44574 | 6565 ft | 286 kts | 225° |
| 2026-04-25 04:03 | -5.12380 | 119.43106 | 7367 ft | 290 kts | 228° |
| 2026-04-25 04:03 | -5.13707 | 119.41558 | 8183 ft | 293 kts | 229° |
| 2026-04-25 04:03 | -5.15021 | 119.39992 | 9007 ft | 297 kts | 229° |
| 2026-04-25 04:04 | -5.16363 | 119.38393 | 9809 ft | 301 kts | 230° |
| 2026-04-25 04:04 | -5.17732 | 119.36771 | 10394 ft | 312 kts | 229° |
| 2026-04-25 04:04 | -5.19199 | 119.35048 | 10616 ft | 335 kts | 229° |
| 2026-04-25 04:04 | -5.20752 | 119.33242 | 10888 ft | 352 kts | 229° |
| 2026-04-25 04:05 | -5.22379 | 119.31361 | 11514 ft | 356 kts | 229° |
| 2026-04-25 04:05 | -5.23999 | 119.29492 | 12195 ft | 359 kts | 229° |
| 2026-04-25 04:05 | -5.25647 | 119.27590 | 12861 ft | 363 kts | 229° |
| 2026-04-25 04:05 | -5.27325 | 119.25652 | 13519 ft | 366 kts | 229° |
| 2026-04-25 04:06 | -5.28989 | 119.23729 | 14112 ft | 370 kts | 229° |
| 2026-04-25 04:06 | -5.30689 | 119.21764 | 14696 ft | 373 kts | 229° |
| 2026-04-25 04:06 | -5.32383 | 119.19803 | 15255 ft | 376 kts | 229° |
| 2026-04-25 04:06 | -5.34104 | 119.17813 | 15807 ft | 379 kts | 229° |
| 2026-04-25 04:07 | -5.35833 | 119.15813 | 16352 ft | 383 kts | 229° |
| 2026-04-25 04:07 | -5.37575 | 119.13799 | 16875 ft | 386 kts | 229° |
| 2026-04-25 04:07 | -5.39337 | 119.11761 | 17411 ft | 389 kts | 229° |
| 2026-04-25 04:07 | -5.41131 | 119.09686 | 17927 ft | 393 kts | 229° |
| 2026-04-25 04:08 | -5.42919 | 119.07621 | 18418 ft | 396 kts | 229° |
| 2026-04-25 04:08 | -5.44746 | 119.05514 | 18884 ft | 398 kts | 229° |
| 2026-04-25 04:08 | -5.46553 | 119.03432 | 19373 ft | 400 kts | 229° |
| 2026-04-25 04:08 | -5.48404 | 119.01301 | 19841 ft | 403 kts | 229° |
| 2026-04-25 04:09 | -5.50262 | 118.99162 | 20339 ft | 405 kts | 229° |
| 2026-04-25 04:09 | -5.52106 | 118.97038 | 20809 ft | 408 kts | 229° |
| 2026-04-25 04:09 | -5.53969 | 118.94893 | 21280 ft | 411 kts | 229° |
| 2026-04-25 04:09 | -5.55865 | 118.92711 | 21753 ft | 414 kts | 229° |
| 2026-04-25 04:10 | -5.57748 | 118.90541 | 22217 ft | 416 kts | 229° |
| 2026-04-25 04:10 | -5.59673 | 118.88323 | 22713 ft | 419 kts | 229° |
| 2026-04-25 04:10 | -5.61583 | 118.86122 | 23176 ft | 422 kts | 229° |
| 2026-04-25 04:10 | -5.63522 | 118.83888 | 23618 ft | 425 kts | 228° |
| 2026-04-25 04:11 | -5.67424 | 118.79391 | 24408 ft | 430 kts | 229° |
| 2026-04-25 04:11 | -5.69404 | 118.77109 | 24788 ft | 433 kts | 229° |
| 2026-04-25 04:11 | -5.71373 | 118.74839 | 25156 ft | 436 kts | 229° |
| 2026-04-25 04:12 | -5.73392 | 118.72512 | 25556 ft | 439 kts | 229° |
| 2026-04-25 04:12 | -5.75382 | 118.70217 | 25928 ft | 442 kts | 229° |
| 2026-04-25 04:12 | -5.77427 | 118.67860 | 26311 ft | 445 kts | 229° |
| 2026-04-25 04:12 | -5.79457 | 118.65520 | 26669 ft | 448 kts | 229° |
| 2026-04-25 04:13 | -5.81502 | 118.63162 | 27047 ft | 451 kts | 229° |
| 2026-04-25 04:13 | -5.83580 | 118.60768 | 27410 ft | 454 kts | 229° |
| 2026-04-25 04:13 | -5.85649 | 118.58384 | 27757 ft | 457 kts | 229° |
| 2026-04-25 04:13 | -5.87747 | 118.55966 | 28125 ft | 460 kts | 229° |
| 2026-04-25 04:14 | -5.89865 | 118.53522 | 28480 ft | 463 kts | 229° |
| 2026-04-25 04:14 | -5.91969 | 118.51094 | 28827 ft | 466 kts | 229° |
| 2026-04-25 04:14 | -5.94117 | 118.48614 | 29174 ft | 469 kts | 229° |
| 2026-04-25 04:14 | -5.96249 | 118.46152 | 29510 ft | 472 kts | 229° |
| 2026-04-25 04:15 | -5.98425 | 118.43639 | 29890 ft | 474 kts | 229° |
| 2026-04-25 04:15 | -6.00588 | 118.41143 | 30217 ft | 477 kts | 229° |
| 2026-04-25 04:15 | -6.02776 | 118.38618 | 30526 ft | 480 kts | 229° |
| 2026-04-25 04:15 | -6.04957 | 118.36099 | 30875 ft | 482 kts | 229° |
| 2026-04-25 04:16 | -6.07183 | 118.33529 | 31217 ft | 485 kts | 229° |
| 2026-04-25 04:16 | -6.09384 | 118.30985 | 31546 ft | 488 kts | 229° |
| 2026-04-25 04:16 | -6.11616 | 118.28406 | 31869 ft | 490 kts | 229° |
| 2026-04-25 04:16 | -6.13866 | 118.25804 | 32197 ft | 493 kts | 229° |
| 2026-04-25 04:17 | -6.16110 | 118.23211 | 32469 ft | 495 kts | 229° |
| 2026-04-25 04:17 | -6.18388 | 118.20576 | 32727 ft | 497 kts | 229° |
| 2026-04-25 04:17 | -6.20643 | 118.17969 | 32913 ft | 499 kts | 229° |
| 2026-04-25 04:17 | -6.22937 | 118.15316 | 33115 ft | 501 kts | 229° |
| 2026-04-25 04:18 | -6.25206 | 118.12690 | 33261 ft | 502 kts | 229° |
| 2026-04-25 04:18 | -6.27503 | 118.10032 | 33418 ft | 503 kts | 229° |
| 2026-04-25 04:18 | -6.29793 | 118.07383 | 33599 ft | 503 kts | 229° |
| 2026-04-25 04:18 | -6.32077 | 118.04740 | 33789 ft | 503 kts | 229° |
| 2026-04-25 04:19 | -6.34396 | 118.02056 | 33969 ft | 503 kts | 229° |
| 2026-04-25 04:19 | -6.36691 | 117.99399 | 34146 ft | 502 kts | 229° |
| 2026-04-25 04:19 | -6.38973 | 117.96757 | 34330 ft | 502 kts | 229° |
| 2026-04-25 04:19 | -6.41248 | 117.94120 | 34506 ft | 501 kts | 229° |
| 2026-04-25 04:20 | -6.43522 | 117.91484 | 34678 ft | 501 kts | 229° |
| 2026-04-25 04:20 | -6.45821 | 117.88820 | 34846 ft | 501 kts | 229° |
| 2026-04-25 04:20 | -6.48088 | 117.86193 | 35027 ft | 500 kts | 229° |
| 2026-04-25 04:20 | -6.50386 | 117.83532 | 35216 ft | 500 kts | 229° |
| 2026-04-25 04:21 | -6.52639 | 117.80922 | 35408 ft | 499 kts | 229° |
| 2026-04-25 04:21 | -6.54936 | 117.78262 | 35608 ft | 499 kts | 229° |
| 2026-04-25 04:21 | -6.57197 | 117.75642 | 35811 ft | 499 kts | 230° |
| 2026-04-25 04:21 | -6.59460 | 117.73020 | 36016 ft | 498 kts | 230° |
| 2026-04-25 04:22 | -6.61743 | 117.70374 | 36236 ft | 498 kts | 230° |
| 2026-04-25 04:22 | -6.64020 | 117.67735 | 36478 ft | 497 kts | 230° |
| 2026-04-25 04:22 | -6.66272 | 117.65124 | 36691 ft | 497 kts | 230° |
| 2026-04-25 04:22 | -6.68525 | 117.62511 | 36919 ft | 496 kts | 230° |
| 2026-04-25 04:23 | -6.70788 | 117.59861 | 37143 ft | 495 kts | 230° |
| 2026-04-25 04:23 | -6.73011 | 117.57225 | 37358 ft | 495 kts | 230° |
| 2026-04-25 04:23 | -6.75219 | 117.54595 | 37565 ft | 495 kts | 231° |
| 2026-04-25 04:23 | -6.77430 | 117.51960 | 37804 ft | 494 kts | 231° |
| 2026-04-25 04:24 | -6.79657 | 117.49307 | 37904 ft | 493 kts | 231° |
| 2026-04-25 04:24 | -6.84071 | 117.44055 | 37890 ft | 492 kts | 231° |
| 2026-04-25 04:25 | -6.88506 | 117.38782 | 37913 ft | 492 kts | 231° |
| 2026-04-25 04:25 | -6.92929 | 117.33523 | 37901 ft | 492 kts | 231° |
| 2026-04-25 04:26 | -6.97344 | 117.28274 | 37909 ft | 492 kts | 231° |
| 2026-04-25 04:26 | -7.01771 | 117.23009 | 37914 ft | 491 kts | 231° |
| 2026-04-25 04:26 | -7.03952 | 117.20413 | 37780 ft | 491 kts | 231° |
| 2026-04-25 04:27 | -7.06131 | 117.17820 | 37377 ft | 492 kts | 231° |
| 2026-04-25 04:27 | -7.08370 | 117.15156 | 36846 ft | 492 kts | 231° |
| 2026-04-25 04:27 | -7.10598 | 117.12503 | 36318 ft | 492 kts | 231° |
| 2026-04-25 04:27 | -7.12799 | 117.09880 | 35783 ft | 493 kts | 231° |
| 2026-04-25 04:28 | -7.14988 | 117.07270 | 35224 ft | 493 kts | 231° |
| 2026-04-25 04:28 | -7.17219 | 117.04607 | 34667 ft | 497 kts | 231° |
| 2026-04-25 04:28 | -7.19470 | 117.01920 | 34129 ft | 499 kts | 231° |
| 2026-04-25 04:28 | -7.21704 | 116.99255 | 33535 ft | 500 kts | 231° |
| 2026-04-25 04:29 | -7.23956 | 116.96569 | 32926 ft | 500 kts | 230° |
| 2026-04-25 04:29 | -7.26196 | 116.93899 | 32342 ft | 501 kts | 230° |
| 2026-04-25 04:29 | -7.28431 | 116.91238 | 31777 ft | 502 kts | 230° |
| 2026-04-25 04:29 | -7.30697 | 116.88538 | 31200 ft | 500 kts | 230° |
| 2026-04-25 04:30 | -7.32922 | 116.85885 | 30650 ft | 495 kts | 230° |
| 2026-04-25 04:30 | -7.35150 | 116.83226 | 30102 ft | 490 kts | 230° |
| 2026-04-25 04:30 | -7.37322 | 116.80635 | 29487 ft | 484 kts | 230° |
| 2026-04-25 04:30 | -7.39472 | 116.78069 | 28874 ft | 479 kts | 230° |
| 2026-04-25 04:31 | -7.41629 | 116.75496 | 28256 ft | 475 kts | 230° |
| 2026-04-25 04:31 | -7.43751 | 116.72963 | 27668 ft | 471 kts | 230° |
| 2026-04-25 04:31 | -7.45846 | 116.70463 | 27079 ft | 467 kts | 230° |
| 2026-04-25 04:31 | -7.47942 | 116.67962 | 26506 ft | 463 kts | 230° |
| 2026-04-25 04:32 | -7.49997 | 116.65509 | 25948 ft | 459 kts | 230° |
| 2026-04-25 04:32 | -7.52031 | 116.63087 | 25400 ft | 455 kts | 230° |
| 2026-04-25 04:32 | -7.54125 | 116.60661 | 24863 ft | 452 kts | 229° |
| 2026-04-25 04:32 | -7.56220 | 116.58282 | 24331 ft | 448 kts | 229° |
| 2026-04-25 04:33 | -7.58279 | 116.55961 | 23816 ft | 445 kts | 229° |
| 2026-04-25 04:33 | -7.60339 | 116.53642 | 23270 ft | 442 kts | 229° |
| 2026-04-25 04:33 | -7.62380 | 116.51343 | 22972 ft | 439 kts | 229° |
| 2026-04-25 04:33 | -7.64394 | 116.49066 | 22661 ft | 438 kts | 229° |
| 2026-04-25 04:34 | -7.66428 | 116.46762 | 22307 ft | 435 kts | 229° |
| 2026-04-25 04:34 | -7.68428 | 116.44496 | 22017 ft | 436 kts | 229° |
| 2026-04-25 04:34 | -7.70452 | 116.42201 | 21908 ft | 432 kts | 229° |
| 2026-04-25 04:34 | -7.72415 | 116.39975 | 21900 ft | 433 kts | 229° |
| 2026-04-25 04:35 | -7.74453 | 116.37662 | 21901 ft | 433 kts | 229° |
| 2026-04-25 04:35 | -7.76433 | 116.35413 | 21902 ft | 433 kts | 229° |
| 2026-04-25 04:35 | -7.78439 | 116.33135 | 21898 ft | 432 kts | 229° |
| 2026-04-25 04:35 | -7.80416 | 116.30874 | 21901 ft | 432 kts | 230° |
| 2026-04-25 04:36 | -7.82041 | 116.28300 | 21900 ft | 434 kts | 245° |
| 2026-04-25 04:36 | -7.82930 | 116.25432 | 21896 ft | 434 kts | 260° |
| 2026-04-25 04:36 | -7.83152 | 116.22384 | 21897 ft | 434 kts | 270° |
| 2026-04-25 04:36 | -7.83182 | 116.19362 | 21895 ft | 434 kts | 270° |
| 2026-04-25 04:37 | -7.83241 | 116.16308 | 21898 ft | 433 kts | 269° |
| 2026-04-25 04:37 | -7.83593 | 116.13302 | 21900 ft | 434 kts | 257° |
| 2026-04-25 04:37 | -7.84574 | 116.10399 | 21901 ft | 433 kts | 245° |
| 2026-04-25 04:37 | -7.86019 | 116.07730 | 21904 ft | 433 kts | 240° |
| 2026-04-25 04:38 | -7.87513 | 116.05112 | 21833 ft | 433 kts | 240° |
| 2026-04-25 04:38 | -7.88514 | 116.03360 | 21655 ft | 432 kts | 240° |
| 2026-04-25 04:38 | -7.90504 | 115.99876 | 21187 ft | 428 kts | 240° |
| 2026-04-25 04:38 | -7.91496 | 115.98142 | 20982 ft | 426 kts | 240° |
| 2026-04-25 04:39 | -7.92977 | 115.95548 | 20653 ft | 425 kts | 240° |
| 2026-04-25 04:39 | -7.94441 | 115.92987 | 20294 ft | 423 kts | 240° |
| 2026-04-25 04:39 | -7.95918 | 115.90401 | 19916 ft | 421 kts | 240° |
| 2026-04-25 04:39 | -7.97366 | 115.87864 | 19556 ft | 419 kts | 240° |
| 2026-04-25 04:40 | -7.98824 | 115.85312 | 19191 ft | 416 kts | 240° |
| 2026-04-25 04:40 | -8.00251 | 115.82814 | 18833 ft | 414 kts | 240° |
| 2026-04-25 04:40 | -8.01695 | 115.80286 | 18487 ft | 412 kts | 240° |
| 2026-04-25 04:40 | -8.03109 | 115.77811 | 18130 ft | 410 kts | 240° |
| 2026-04-25 04:41 | -8.04542 | 115.75305 | 17936 ft | 408 kts | 240° |
| 2026-04-25 04:41 | -8.05953 | 115.72840 | 17903 ft | 408 kts | 240° |
| 2026-04-25 04:41 | -8.07381 | 115.70349 | 17899 ft | 409 kts | 240° |
| 2026-04-25 04:41 | -8.08796 | 115.67881 | 17904 ft | 409 kts | 240° |
| 2026-04-25 04:42 | -8.10229 | 115.65382 | 17901 ft | 408 kts | 240° |
| 2026-04-25 04:42 | -8.11644 | 115.62913 | 17906 ft | 409 kts | 240° |
| 2026-04-25 04:42 | -8.13075 | 115.60420 | 17907 ft | 408 kts | 240° |
| 2026-04-25 04:42 | -8.14488 | 115.57956 | 17911 ft | 408 kts | 240° |
| 2026-04-25 04:43 | -8.15918 | 115.55464 | 17909 ft | 408 kts | 240° |
| 2026-04-25 04:43 | -8.17349 | 115.52974 | 17909 ft | 409 kts | 240° |
| 2026-04-25 04:43 | -8.18763 | 115.50516 | 17911 ft | 409 kts | 240° |
| 2026-04-25 04:43 | -8.20201 | 115.48019 | 17911 ft | 408 kts | 240° |
| 2026-04-25 04:44 | -8.21617 | 115.45561 | 17908 ft | 409 kts | 240° |
| 2026-04-25 04:44 | -8.23060 | 115.43061 | 17862 ft | 408 kts | 240° |
| 2026-04-25 04:44 | -8.24479 | 115.40604 | 17526 ft | 407 kts | 240° |
| 2026-04-25 04:44 | -8.25894 | 115.38158 | 17036 ft | 404 kts | 240° |
| 2026-04-25 04:45 | -8.27320 | 115.35696 | 16546 ft | 401 kts | 240° |
| 2026-04-25 04:45 | -8.28710 | 115.33299 | 16068 ft | 398 kts | 240° |
| 2026-04-25 04:45 | -8.30109 | 115.30889 | 15593 ft | 395 kts | 240° |
| 2026-04-25 04:45 | -8.31478 | 115.28526 | 15129 ft | 387 kts | 240° |
| 2026-04-25 04:46 | -8.32823 | 115.26213 | 14657 ft | 370 kts | 240° |
| 2026-04-25 04:46 | -8.34096 | 115.24025 | 14204 ft | 360 kts | 240° |
| 2026-04-25 04:46 | -8.35376 | 115.21824 | 13773 ft | 362 kts | 240° |
| 2026-04-25 04:46 | -8.36650 | 115.19629 | 13260 ft | 359 kts | 240° |
| 2026-04-25 04:47 | -8.37898 | 115.17477 | 12768 ft | 356 kts | 240° |
| 2026-04-25 04:47 | -8.39155 | 115.15313 | 12261 ft | 354 kts | 240° |
| 2026-04-25 04:47 | -8.40379 | 115.13207 | 11798 ft | 345 kts | 240° |
| 2026-04-25 04:47 | -8.41640 | 115.11038 | 11315 ft | 368 kts | 240° |
| 2026-04-25 04:48 | -8.42908 | 115.08855 | 10846 ft | 355 kts | 240° |
| 2026-04-25 04:48 | -8.44132 | 115.06746 | 10384 ft | 339 kts | 241° |
| 2026-04-25 04:48 | -8.45282 | 115.04767 | 9927 ft | 318 kts | 241° |
| 2026-04-25 04:48 | -8.46409 | 115.02828 | 9441 ft | 323 kts | 240° |
| 2026-04-25 04:49 | -8.47531 | 115.00899 | 8923 ft | 316 kts | 240° |
| 2026-04-25 04:49 | -8.48616 | 114.98988 | 8430 ft | 311 kts | 241° |
| 2026-04-25 04:49 | -8.49686 | 114.97086 | 7946 ft | 311 kts | 241° |
| 2026-04-25 04:49 | -8.50751 | 114.95198 | 7459 ft | 307 kts | 241° |
| 2026-04-25 04:50 | -8.51814 | 114.93320 | 7006 ft | 305 kts | 241° |
| 2026-04-25 04:50 | -8.52853 | 114.91487 | 6475 ft | 303 kts | 241° |
| 2026-04-25 04:50 | -8.53902 | 114.89644 | 5889 ft | 299 kts | 241° |
| 2026-04-25 04:50 | -8.54940 | 114.87825 | 5319 ft | 297 kts | 241° |
| 2026-04-25 04:51 | -8.55967 | 114.86048 | 4737 ft | 292 kts | 238° |
| 2026-04-25 04:51 | -8.57324 | 114.84534 | 4164 ft | 288 kts | 218° |
| 2026-04-25 04:51 | -8.59037 | 114.83614 | 3597 ft | 274 kts | 197° |
| 2026-04-25 04:51 | -8.60875 | 114.83422 | 3184 ft | 256 kts | 173° |
| 2026-04-25 04:52 | -8.62548 | 114.83984 | 3055 ft | 256 kts | 150° |
| 2026-04-25 04:52 | -8.64012 | 114.85007 | 3013 ft | 253 kts | 142° |
| 2026-04-25 04:52 | -8.65416 | 114.86078 | 3010 ft | 254 kts | 143° |
| 2026-04-25 04:52 | -8.66882 | 114.87063 | 3004 ft | 255 kts | 148° |
| 2026-04-25 04:53 | -8.68418 | 114.87925 | 3007 ft | 255 kts | 152° |
| 2026-04-25 04:53 | -8.70034 | 114.88721 | 3005 ft | 254 kts | 154° |
| 2026-04-25 04:53 | -8.71566 | 114.89419 | 3009 ft | 234 kts | 155° |
| 2026-04-25 04:53 | -8.73071 | 114.90086 | 3006 ft | 237 kts | 155° |
| 2026-04-25 04:54 | -8.74563 | 114.90817 | 2937 ft | 238 kts | 146° |
| 2026-04-25 04:54 | -8.75688 | 114.91980 | 2661 ft | 230 kts | 121° |
| 2026-04-25 04:54 | -8.76148 | 114.93446 | 2519 ft | 210 kts | 94° |
| 2026-04-25 04:54 | -8.76037 | 114.94876 | 2505 ft | 204 kts | 81° |
| 2026-04-25 04:55 | -8.75795 | 114.96268 | 2509 ft | 201 kts | 81° |
| 2026-04-25 04:55 | -8.75586 | 114.97679 | 2507 ft | 200 kts | 84° |
| 2026-04-25 04:55 | -8.75462 | 114.99085 | 2501 ft | 201 kts | 88° |
| 2026-04-25 04:55 | -8.75405 | 115.00488 | 2489 ft | 201 kts | 89° |
| 2026-04-25 04:56 | -8.75353 | 115.01880 | 2502 ft | 200 kts | 89° |
| 2026-04-25 04:56 | -8.75312 | 115.03299 | 2365 ft | 197 kts | 88° |
| 2026-04-25 04:56 | -8.75272 | 115.04678 | 2022 ft | 194 kts | 88° |
| 2026-04-25 04:56 | -8.75208 | 115.06030 | 1664 ft | 193 kts | 88° |
| 2026-04-25 04:57 | -8.75145 | 115.07351 | 1461 ft | 185 kts | 89° |
| 2026-04-25 04:57 | -8.75129 | 115.08617 | 1262 ft | 172 kts | 91° |
| 2026-04-25 04:57 | -8.75157 | 115.09764 | 1113 ft | 158 kts | 92° |
| 2026-04-25 04:57 | -8.75132 | 115.10896 | 695 ft | 162 kts | 90° |
| 2026-04-25 04:58 | -8.75017 | 115.11982 | 567 ft | 149 kts | 85° |
| 2026-04-25 04:58 | -8.74949 | 115.13064 | 473 ft | 153 kts | 90° |
| 2026-04-25 04:58 | -8.74909 | 115.14128 | 362 ft | 152 kts | 91° |
| 2026-04-25 04:58 | -8.74899 | 115.15163 | 162 ft | 150 kts | 92° |
| 2026-04-25 04:59 | -8.74880 | 115.16185 | 26 ft | 135 kts | 87° |
| 2026-04-25 04:59 | -8.74852 | 115.16833 | 29 ft | 50 kts | 88° |
| 2026-04-25 04:59 | -8.74827 | 115.17173 | 30 ft | 40 kts | 86° |
| 2026-04-25 04:59 | -8.74791 | 115.17293 | 30 ft | 15 kts | 39° |
| 2026-04-25 05:00 | -8.74715 | 115.17309 | 30 ft | 11 kts | 359° |
| 2026-04-25 05:00 | -8.74662 | 115.17281 | 26 ft | 7 kts | 301° |
| 2026-04-25 05:00 | -8.74649 | 115.17217 | 26 ft | 12 kts | 277° |
| 2026-04-25 05:00 | -8.74653 | 115.17122 | 31 ft | 16 kts | 267° |
| 2026-04-25 05:01 | -8.74659 | 115.17023 | 26 ft | 11 kts | 266° |
| 2026-04-25 05:01 | -8.74662 | 115.16965 | 29 ft | 9 kts | 268° |
| 2026-04-25 05:01 | -8.74641 | 115.16930 | 27 ft | 4 kts | 325° |
| 2026-04-25 05:01 | -8.74595 | 115.16932 | 29 ft | 10 kts | 2° |
| 2026-04-25 05:02 | -8.74553 | 115.16930 | 26 ft | 7 kts | 358° |
| 2026-04-25 05:02 | -8.74538 | 115.16930 | 26 ft | 0 kts | 358° |